Time,TemperatureF,DewpointF,PressureIn,WindDirection,WindDirectionDegrees,WindSpeedMPH,WindSpeedGustMPH,Humidity,HourlyPrecipIn,Conditions,Clouds,dailyrainin,SoftwareType,DateUTC
2013-08-11 00:01:00,81.8,75.8,30.09,SSE,152,2.3,0.0,82,0.00,CLR,,0.00,WeatherDisplay:10.37,2013-08-11 04:01:00,
2013-08-11 00:06:00,81.7,75.7,30.09,SSE,152,0.0,0.0,82,0.00,CLR,,0.00,WeatherDisplay:10.37,2013-08-11 04:06:00,
2013-08-11 00:11:00,81.6,75.6,30.09,SSE,153,1.2,1.2,82,0.00,CLR,,0.00,WeatherDisplay:10.37,2013-08-11 04:11:00,
2013-08-11 00:16:00,81.6,75.6,30.10,SSE,151,2.3,0.0,82,0.00,CLR,,0.00,WeatherDisplay:10.37,2013-08-11 04:16:00,
2013-08-11 00:21:00,81.7,75.7,30.09,SSE,152,1.0,0.0,82,0.00,CLR,,0.00,WeatherDisplay:10.37,2013-08-11 04:21:00,
2013-08-11 00:26:00,81.8,75.8,30.09,SSE,152,1.2,1.2,82,0.00,CLR,,0.00,WeatherDisplay:10.37,2013-08-11 04:26:00,
2013-08-11 00:31:00,82.0,76.0,30.09,SSE,152,0.0,0.0,82,0.00,CLR,,0.00,WeatherDisplay:10.37,2013-08-11 04:31:00,
2013-08-11 00:36:00,82.1,76.1,30.09,SSE,152,5.8,0.0,82,0.00,CLR,,0.00,WeatherDisplay:10.37,2013-08-11 04:36:00,
2013-08-11 00:41:00,82.0,76.0,30.09,SSE,153,0.0,0.0,82,0.00,CLR,,0.00,WeatherDisplay:10.37,2013-08-11 04:41:00,
2013-08-11 00:46:00,82.0,76.0,30.09,SSE,155,5.8,5.8,82,0.00,CLR,,0.00,WeatherDisplay:10.37,2013-08-11 04:46:00,
2013-08-11 00:51:00,81.8,75.8,30.09,SSE,154,0.0,0.0,82,0.00,CLR,,0.00,WeatherDisplay:10.37,2013-08-11 04:51:00,
2013-08-11 00:56:00,81.8,75.8,30.10,SSE,153,0.0,0.0,82,0.00,CLR,,0.00,WeatherDisplay:10.37,2013-08-11 04:56:00,
2013-08-11 01:01:00,81.6,75.6,30.10,SSE,153,0.0,0.0,82,0.00,CLR,,0.00,WeatherDisplay:10.37,2013-08-11 05:01:00,
2013-08-11 01:07:00,81.4,75.7,30.09,SSE,155,1.2,0.0,83,0.00,CLR,,0.00,WeatherDisplay:10.37,2013-08-11 05:07:00,
2013-08-11 01:12:00,81.4,75.7,30.10,SSE,153,0.0,0.0,83,0.00,CLR,,0.00,WeatherDisplay:10.37,2013-08-11 05:12:00,
2013-08-11 01:17:00,81.4,76.1,30.09,SSE,153,0.0,0.0,84,0.00,CLR,,0.00,WeatherDisplay:10.37,2013-08-11 05:17:00,
2013-08-11 01:22:00,81.4,76.1,30.09,SSE,155,0.0,0.0,84,0.00,CLR,,0.00,WeatherDisplay:10.37,2013-08-11 05:22:00,
2013-08-11 01:28:00,81.5,76.2,30.09,SSE,153,1.2,0.0,84,0.00,CLR,,0.00,WeatherDisplay:10.37,2013-08-11 05:28:00,
2013-08-11 01:33:00,81.7,76.4,30.09,SSE,155,1.2,0.0,84,0.00,CLR,,0.00,WeatherDisplay:10.37,2013-08-11 05:33:00,
2013-08-11 01:38:00,81.8,76.5,30.09,SSE,155,2.0,2.0,84,0.00,CLR,,0.00,WeatherDisplay:10.37,2013-08-11 05:38:00,
2013-08-11 01:43:00,81.8,76.5,30.09,SSE,155,0.0,0.0,84,0.00,CLR,,0.00,WeatherDisplay:10.37,2013-08-11 05:43:00,
2013-08-11 01:48:00,81.8,76.5,30.09,SSE,155,0.0,0.0,84,0.00,CLR,,0.00,WeatherDisplay:10.37,2013-08-11 05:48:00,
2013-08-11 01:53:00,81.6,76.6,30.09,SSE,154,0.0,0.0,85,0.00,CLR,,0.00,WeatherDisplay:10.37,2013-08-11 05:53:00,
2013-08-11 01:58:00,81.6,76.6,30.09,SSE,153,0.0,0.0,85,0.00,CLR,,0.00,WeatherDisplay:10.37,2013-08-11 05:58:00,
2013-08-11 02:04:00,81.5,76.6,30.09,SSE,153,0.0,0.0,85,0.00,CLR,,0.00,WeatherDisplay:10.37,2013-08-11 06:04:00,
2013-08-11 02:09:00,81.4,76.5,30.09,SSE,153,1.2,0.0,85,0.00,CLR,,0.00,WeatherDisplay:10.37,2013-08-11 06:09:00,
2013-08-11 02:14:00,81.3,76.7,30.09,SSE,153,0.0,0.0,86,0.00,CLR,,0.00,WeatherDisplay:10.37,2013-08-11 06:14:00,
2013-08-11 02:20:00,81.3,76.7,30.09,SSE,153,0.0,0.0,86,0.00,CLR,,0.00,WeatherDisplay:10.37,2013-08-11 06:20:00,
2013-08-11 02:25:00,81.3,76.7,30.09,SSE,155,1.2,0.0,86,0.00,CLR,,0.00,WeatherDisplay:10.37,2013-08-11 06:25:00,
2013-08-11 02:30:00,81.4,76.5,30.09,SSE,153,0.0,0.0,85,0.00,CLR,,0.00,WeatherDisplay:10.37,2013-08-11 06:30:00,
2013-08-11 02:36:00,81.4,76.5,30.09,SSE,153,0.0,0.0,85,0.00,CLR,,0.00,WeatherDisplay:10.37,2013-08-11 06:36:00,
2013-08-11 02:41:00,81.4,76.5,30.09,SSE,153,1.2,0.0,85,0.00,CLR,,0.00,WeatherDisplay:10.37,2013-08-11 06:41:00,
2013-08-11 02:46:00,81.5,76.6,30.09,SSE,153,0.0,0.0,85,0.00,CLR,,0.00,WeatherDisplay:10.37,2013-08-11 06:46:00,
2013-08-11 02:51:00,81.5,76.6,30.09,SSE,154,0.0,0.0,85,0.00,CLR,,0.00,WeatherDisplay:10.37,2013-08-11 06:51:00,
2013-08-11 02:56:00,81.5,76.6,30.08,SSE,153,0.0,0.0,85,0.00,CLR,,0.00,WeatherDisplay:10.37,2013-08-11 06:56:00,
2013-08-11 03:02:00,81.5,76.6,30.09,SSE,155,0.0,0.0,85,0.00,CLR,,0.00,WeatherDisplay:10.37,2013-08-11 07:02:00,
2013-08-11 03:08:00,81.5,76.6,30.09,SSE,154,0.0,0.0,85,0.00,CLR,,0.00,WeatherDisplay:10.37,2013-08-11 07:08:00,
2013-08-11 03:13:00,81.5,76.6,30.08,SSE,153,0.0,0.0,85,0.00,CLR,,0.00,WeatherDisplay:10.37,2013-08-11 07:13:00,
2013-08-11 03:18:00,81.4,76.5,30.08,SSE,153,0.0,0.0,85,0.00,CLR,,0.00,WeatherDisplay:10.37,2013-08-11 07:18:00,
2013-08-11 03:23:00,81.3,76.4,30.08,SSE,153,0.0,0.0,85,0.00,CLR,,0.00,WeatherDisplay:10.37,2013-08-11 07:23:00,
2013-08-11 03:28:00,81.1,76.2,30.08,SSE,155,0.0,0.0,85,0.00,CLR,,0.00,WeatherDisplay:10.37,2013-08-11 07:28:00,
2013-08-11 03:34:00,81.1,76.5,30.08,SSE,154,0.0,0.0,86,0.00,CLR,,0.00,WeatherDisplay:10.37,2013-08-11 07:34:00,
2013-08-11 03:39:00,81.0,76.4,30.08,SSE,153,0.0,0.0,86,0.00,CLR,,0.00,WeatherDisplay:10.37,2013-08-11 07:39:00,
2013-08-11 03:45:00,80.9,76.3,30.08,SSE,153,0.0,0.0,86,0.00,CLR,,0.00,WeatherDisplay:10.37,2013-08-11 07:45:00,
2013-08-11 03:50:00,80.8,76.6,30.08,SSE,153,0.0,0.0,87,0.00,CLR,,0.00,WeatherDisplay:10.37,2013-08-11 07:50:00,
2013-08-11 03:55:00,80.8,76.6,30.08,SSE,153,0.0,0.0,87,0.00,CLR,,0.00,WeatherDisplay:10.37,2013-08-11 07:55:00,
2013-08-11 04:01:00,80.8,76.6,30.08,SSE,153,1.2,0.0,87,0.00,CLR,,0.00,WeatherDisplay:10.37,2013-08-11 08:01:00,
2013-08-11 04:06:00,80.8,76.6,30.08,SSE,154,0.0,0.0,87,0.00,CLR,,0.00,WeatherDisplay:10.37,2013-08-11 08:06:00,
2013-08-11 04:12:00,80.8,76.2,30.08,SSE,153,0.0,0.0,86,0.00,CLR,,0.00,WeatherDisplay:10.37,2013-08-11 08:12:00,
2013-08-11 04:17:00,80.9,76.3,30.08,SSE,153,0.0,0.0,86,0.00,CLR,,0.00,WeatherDisplay:10.37,2013-08-11 08:17:00,
2013-08-11 04:22:00,80.9,76.3,30.08,SSE,153,0.0,0.0,86,0.00,CLR,,0.00,WeatherDisplay:10.37,2013-08-11 08:22:00,
2013-08-11 04:27:00,80.9,76.0,30.08,SSE,153,0.0,0.0,85,0.00,CLR,,0.00,WeatherDisplay:10.37,2013-08-11 08:27:00,
2013-08-11 04:32:00,80.8,75.9,30.08,SSE,154,0.0,0.0,85,0.00,CLR,,0.00,WeatherDisplay:10.37,2013-08-11 08:32:00,
2013-08-11 04:38:00,80.8,75.9,30.08,SSE,153,0.0,0.0,85,0.00,CLR,,0.00,WeatherDisplay:10.37,2013-08-11 08:38:00,
2013-08-11 04:43:00,80.7,75.8,30.08,SSE,153,0.0,0.0,85,0.00,CLR,,0.00,WeatherDisplay:10.37,2013-08-11 08:43:00,
2013-08-11 04:49:00,80.5,75.9,30.08,SSE,153,0.0,0.0,86,0.00,CLR,,0.00,WeatherDisplay:10.37,2013-08-11 08:49:00,
2013-08-11 04:54:00,80.2,75.6,30.08,SSE,155,0.0,0.0,86,0.00,CLR,,0.00,WeatherDisplay:10.37,2013-08-11 08:54:00,
2013-08-11 05:01:00,80.0,75.8,30.08,SSE,155,0.0,0.0,87,0.00,CLR,,0.00,WeatherDisplay:10.37,2013-08-11 09:01:00,
2013-08-11 05:06:00,79.8,75.6,30.08,SSE,153,0.0,0.0,87,0.00,CLR,,0.00,WeatherDisplay:10.37,2013-08-11 09:06:00,
2013-08-11 05:11:00,79.5,75.6,30.08,SSE,153,0.0,0.0,88,0.00,CLR,,0.00,WeatherDisplay:10.37,2013-08-11 09:11:00,
2013-08-11 05:16:00,79.4,75.5,30.08,SSE,155,0.0,0.0,88,0.00,CLR,,0.00,WeatherDisplay:10.37,2013-08-11 09:16:00,
2013-08-11 05:22:00,79.4,75.9,30.08,SSE,155,0.0,0.0,89,0.00,CLR,,0.00,WeatherDisplay:10.37,2013-08-11 09:22:00,
2013-08-11 05:27:00,79.6,76.1,30.08,SSE,153,0.0,0.0,89,0.00,CLR,,0.00,WeatherDisplay:10.37,2013-08-11 09:27:00,
2013-08-11 05:32:00,79.7,76.2,30.08,SSE,153,0.0,0.0,89,0.00,CLR,,0.00,WeatherDisplay:10.37,2013-08-11 09:32:00,
2013-08-11 05:37:00,79.8,75.9,30.08,SSE,152,0.0,0.0,88,0.00,CLR,,0.00,WeatherDisplay:10.37,2013-08-11 09:37:00,
2013-08-11 05:43:00,79.9,76.0,30.08,SSE,155,2.3,2.3,88,0.00,CLR,,0.00,WeatherDisplay:10.37,2013-08-11 09:43:00,
2013-08-11 05:48:00,79.9,76.0,30.09,SSE,152,0.0,0.0,88,0.00,CLR,,0.00,WeatherDisplay:10.37,2013-08-11 09:48:00,
2013-08-11 05:54:00,79.8,75.9,30.09,SSE,153,0.0,0.0,88,0.00,CLR,,0.00,WeatherDisplay:10.37,2013-08-11 09:54:00,
2013-08-11 05:59:00,79.7,75.8,30.09,SSE,153,0.0,0.0,88,0.00,CLR,,0.00,WeatherDisplay:10.37,2013-08-11 09:59:00,
2013-08-11 06:05:00,79.6,75.7,30.09,SSE,153,0.0,0.0,88,0.00,CLR,,0.00,WeatherDisplay:10.37,2013-08-11 10:05:00,
2013-08-11 06:10:00,79.4,75.9,30.09,SSE,153,0.0,0.0,89,0.00,CLR,,0.00,WeatherDisplay:10.37,2013-08-11 10:10:00,
2013-08-11 06:15:00,79.3,75.8,30.09,SSE,155,0.0,0.0,89,0.00,CLR,,0.00,WeatherDisplay:10.37,2013-08-11 10:15:00,
2013-08-11 06:20:00,79.3,75.8,30.09,SSE,153,0.0,0.0,89,0.00,CLR,,0.00,WeatherDisplay:10.37,2013-08-11 10:20:00,
2013-08-11 06:25:00,79.3,75.8,30.09,SSE,155,0.0,0.0,89,0.00,CLR,,0.00,WeatherDisplay:10.37,2013-08-11 10:25:00,
2013-08-11 06:31:00,79.2,75.7,30.09,SSE,155,0.0,0.0,89,0.00,CLR,,0.00,WeatherDisplay:10.37,2013-08-11 10:31:00,
2013-08-11 06:36:00,79.1,75.9,30.09,SSE,153,0.0,0.0,90,0.00,CLR,,0.00,WeatherDisplay:10.37,2013-08-11 10:36:00,
2013-08-11 06:42:00,79.0,75.8,30.09,SSE,153,0.0,0.0,90,0.00,CLR,,0.00,WeatherDisplay:10.37,2013-08-11 10:42:00,
2013-08-11 06:47:00,79.0,75.8,30.09,SSE,153,0.0,0.0,90,0.00,CLR,,0.00,WeatherDisplay:10.37,2013-08-11 10:47:00,
2013-08-11 06:52:00,78.9,75.7,30.09,SSE,153,0.0,0.0,90,0.00,CLR,,0.00,WeatherDisplay:10.37,2013-08-11 10:52:00,
2013-08-11 06:58:00,78.9,75.7,30.09,SSE,154,0.0,0.0,90,0.00,CLR,,0.00,WeatherDisplay:10.37,2013-08-11 10:58:00,
2013-08-11 07:03:00,78.8,75.6,30.10,SSE,152,0.0,0.0,90,0.00,CLR,,0.00,WeatherDisplay:10.37,2013-08-11 11:03:00,
2013-08-11 07:08:00,78.7,75.5,30.10,SSE,153,0.0,0.0,90,0.00,CLR,,0.00,WeatherDisplay:10.37,2013-08-11 11:08:00,
2013-08-11 07:14:00,78.7,75.5,30.10,SSE,152,0.0,0.0,90,0.00,CLR,,0.00,WeatherDisplay:10.37,2013-08-11 11:14:00,
2013-08-11 07:19:00,78.7,75.8,30.10,SSE,155,0.0,0.0,91,0.00,CLR,,0.00,WeatherDisplay:10.37,2013-08-11 11:19:00,
2013-08-11 07:24:00,78.7,75.8,30.10,SSE,155,0.0,0.0,91,0.00,CLR,,0.00,WeatherDisplay:10.37,2013-08-11 11:24:00,
2013-08-11 07:29:00,78.7,75.8,30.10,SSE,153,0.0,0.0,91,0.00,CLR,,0.00,WeatherDisplay:10.37,2013-08-11 11:29:00,
2013-08-11 07:34:00,78.9,76.0,30.10,SSE,153,0.0,0.0,91,0.00,CLR,,0.00,WeatherDisplay:10.37,2013-08-11 11:34:00,
2013-08-11 07:40:00,79.2,76.3,30.10,SSE,153,0.0,0.0,91,0.00,CLR,,0.00,WeatherDisplay:10.37,2013-08-11 11:40:00,
2013-08-11 07:45:00,79.5,76.6,30.10,SSE,153,0.0,0.0,91,0.00,CLR,,0.00,WeatherDisplay:10.37,2013-08-11 11:45:00,
2013-08-11 07:50:00,79.8,76.6,30.10,SSE,155,0.0,0.0,90,0.00,CLR,,0.00,WeatherDisplay:10.37,2013-08-11 11:50:00,
2013-08-11 07:56:00,80.0,76.8,30.10,SSE,154,1.2,0.0,90,0.00,CLR,,0.00,WeatherDisplay:10.37,2013-08-11 11:56:00,
2013-08-11 08:01:00,80.3,77.1,30.10,SSE,155,0.0,0.0,90,0.00,CLR,,0.00,WeatherDisplay:10.37,2013-08-11 12:01:00,
2013-08-11 08:06:00,80.6,77.4,30.10,SSE,153,0.0,0.0,90,0.00,CLR,,0.00,WeatherDisplay:10.37,2013-08-11 12:06:00,
2013-08-11 08:11:00,81.2,77.3,30.10,SSE,153,2.3,0.0,88,0.00,CLR,,0.00,WeatherDisplay:10.37,2013-08-11 12:11:00,
2013-08-11 08:16:00,81.8,77.5,30.11,SSE,153,1.2,0.0,87,0.00,CLR,,0.00,WeatherDisplay:10.37,2013-08-11 12:16:00,
2013-08-11 08:21:00,82.4,77.8,30.11,SSE,153,1.0,0.0,86,0.00,CLR,,0.00,WeatherDisplay:10.37,2013-08-11 12:21:00,
2013-08-11 08:27:00,82.8,77.5,30.11,SSE,153,0.0,0.0,84,0.00,CLR,,0.00,WeatherDisplay:10.37,2013-08-11 12:27:00,
2013-08-11 08:32:00,83.1,77.8,30.11,NE,42,3.5,3.5,84,0.00,CLR,,0.00,WeatherDisplay:10.37,2013-08-11 12:32:00,
2013-08-11 08:37:00,83.4,77.7,30.11,ENE,61,2.3,2.3,83,0.00,CLR,,0.00,WeatherDisplay:10.37,2013-08-11 12:37:00,
2013-08-11 08:43:00,83.7,78.0,30.11,ENE,61,1.2,0.0,83,0.00,CLR,,0.00,WeatherDisplay:10.37,2013-08-11 12:43:00,
2013-08-11 08:48:00,84.0,77.9,30.11,ENE,61,3.5,3.5,82,0.00,CLR,,0.00,WeatherDisplay:10.37,2013-08-11 12:48:00,
2013-08-11 08:53:00,84.0,77.5,30.11,ENE,60,2.3,2.3,81,0.00,CLR,,0.00,WeatherDisplay:10.37,2013-08-11 12:53:00,
2013-08-11 08:58:00,83.9,77.1,30.11,NE,50,3.5,3.5,80,0.00,CLR,,0.00,WeatherDisplay:10.37,2013-08-11 12:58:00,
2013-08-11 09:03:00,84.3,77.8,30.11,ESE,110,8.1,8.1,81,0.00,CLR,,0.00,WeatherDisplay:10.37,2013-08-11 13:03:00,
2013-08-11 09:08:00,84.6,78.1,30.11,NE,38,1.2,1.2,81,0.00,CLR,,0.00,WeatherDisplay:10.37,2013-08-11 13:08:00,
2013-08-11 09:13:00,85.1,78.2,30.11,NE,42,5.0,5.0,80,0.00,CLR,,0.00,WeatherDisplay:10.37,2013-08-11 13:13:00,
2013-08-11 09:18:00,85.2,77.9,30.11,NE,45,3.5,3.5,79,0.00,CLR,,0.00,WeatherDisplay:10.37,2013-08-11 13:18:00,
2013-08-11 09:23:00,85.2,77.6,30.11,SSE,163,3.5,3.5,78,0.00,CLR,,0.00,WeatherDisplay:10.37,2013-08-11 13:23:00,
2013-08-11 09:28:00,85.3,77.7,30.11,SSE,154,6.0,6.0,78,0.00,CLR,,0.00,WeatherDisplay:10.37,2013-08-11 13:28:00,
2013-08-11 09:33:00,85.5,77.1,30.12,SSE,152,4.0,4.0,76,0.00,CLR,,0.00,WeatherDisplay:10.37,2013-08-11 13:33:00,
2013-08-11 09:38:00,85.6,77.2,30.12,SSE,152,9.2,9.2,76,0.00,CLR,,0.00,WeatherDisplay:10.37,2013-08-11 13:38:00,
2013-08-11 09:43:00,85.7,76.9,30.12,ESE,113,6.0,6.0,75,0.00,CLR,,0.00,WeatherDisplay:10.37,2013-08-11 13:43:00,
2013-08-11 09:49:00,86.0,77.5,30.12,SSE,150,5.0,5.0,76,0.00,CLR,,0.00,WeatherDisplay:10.37,2013-08-11 13:49:00,
2013-08-11 09:54:00,86.2,78.1,30.12,SE,140,1.2,1.2,77,0.00,CLR,,0.00,WeatherDisplay:10.37,2013-08-11 13:54:00,
2013-08-11 10:00:00,86.3,78.2,30.12,East,101,3.5,0.0,77,0.00,CLR,,0.00,WeatherDisplay:10.37,2013-08-11 14:00:00,
2013-08-11 10:05:00,86.6,78.1,30.12,SSE,159,7.0,7.0,76,0.00,CLR,,0.00,WeatherDisplay:10.37,2013-08-11 14:05:00,
2013-08-11 10:10:00,86.6,77.7,30.12,ENE,61,3.5,3.5,75,0.00,CLR,,0.00,WeatherDisplay:10.37,2013-08-11 14:10:00,
2013-08-11 10:15:00,86.7,77.8,30.12,SSE,147,4.6,4.6,75,0.00,CLR,,0.00,WeatherDisplay:10.37,2013-08-11 14:15:00,
2013-08-11 10:21:00,86.6,78.5,30.12,SSE,150,3.5,0.0,77,0.00,CLR,,0.00,WeatherDisplay:10.37,2013-08-11 14:21:00,
2013-08-11 10:26:00,87.0,77.7,30.12,SSE,155,7.0,7.0,74,0.00,CLR,,0.00,WeatherDisplay:10.37,2013-08-11 14:26:00,
2013-08-11 10:31:00,87.2,77.5,30.12,SSE,156,6.9,6.9,73,0.00,CLR,,0.00,WeatherDisplay:10.37,2013-08-11 14:31:00,
2013-08-11 10:36:00,87.1,77.8,30.12,SE,137,6.9,6.9,74,0.00,CLR,,0.00,WeatherDisplay:10.37,2013-08-11 14:36:00,
2013-08-11 10:41:00,87.1,77.8,30.12,SSE,150,11.5,11.5,74,0.00,CLR,,0.00,WeatherDisplay:10.37,2013-08-11 14:41:00,
2013-08-11 10:46:00,87.2,77.9,30.12,SE,144,2.3,2.3,74,0.00,CLR,,0.00,WeatherDisplay:10.37,2013-08-11 14:46:00,
2013-08-11 10:52:00,87.5,78.2,30.12,SE,138,3.5,3.5,74,0.00,CLR,,0.00,WeatherDisplay:10.37,2013-08-11 14:52:00,
2013-08-11 10:58:00,87.8,78.1,30.12,SE,142,5.0,5.0,73,0.00,CLR,,0.00,WeatherDisplay:10.37,2013-08-11 14:58:00,
2013-08-11 11:03:00,88.1,78.3,30.12,SE,142,5.8,5.8,73,0.00,CLR,,0.00,WeatherDisplay:10.37,2013-08-11 15:03:00,
2013-08-11 11:08:00,88.3,78.1,30.12,SE,145,4.6,4.6,72,0.00,CLR,,0.00,WeatherDisplay:10.37,2013-08-11 15:08:00,
2013-08-11 11:13:00,88.3,78.1,30.12,NNE,28,4.0,4.0,72,0.00,CLR,,0.00,WeatherDisplay:10.37,2013-08-11 15:13:00,
2013-08-11 11:19:00,89.5,78.0,30.12,NNE,32,3.5,3.5,69,0.00,CLR,,0.00,WeatherDisplay:10.37,2013-08-11 15:19:00,
2013-08-11 11:24:00,89.6,78.5,30.12,SSE,153,3.5,3.5,70,0.00,CLR,,0.00,WeatherDisplay:10.37,2013-08-11 15:24:00,
2013-08-11 11:29:00,89.4,77.9,30.12,ENE,69,4.6,4.6,69,0.00,CLR,,0.00,WeatherDisplay:10.37,2013-08-11 15:29:00,
2013-08-11 11:34:00,89.7,77.7,30.12,SSE,149,10.0,10.0,68,0.00,CLR,,0.00,WeatherDisplay:10.37,2013-08-11 15:34:00,
2013-08-11 11:40:00,90.7,79.1,30.12,NNE,33,4.0,4.0,69,0.00,CLR,,0.00,WeatherDisplay:10.37,2013-08-11 15:40:00,
2013-08-11 11:45:00,91.0,77.6,30.12,SE,133,4.6,4.6,65,0.00,CLR,,0.00,WeatherDisplay:10.37,2013-08-11 15:45:00,
2013-08-11 11:50:00,91.1,78.6,30.12,ENE,76,3.0,3.0,67,0.00,CLR,,0.00,WeatherDisplay:10.37,2013-08-11 15:50:00,
2013-08-11 11:55:00,91.1,77.2,30.12,NNE,24,3.5,3.5,64,0.00,CLR,,0.00,WeatherDisplay:10.37,2013-08-11 15:55:00,
2013-08-11 12:00:00,91.0,78.1,30.12,SSE,148,11.5,11.5,66,0.00,CLR,,0.00,WeatherDisplay:10.37,2013-08-11 16:00:00,
2013-08-11 12:06:00,91.0,78.1,30.12,SSE,147,5.8,5.8,66,0.00,CLR,,0.00,WeatherDisplay:10.37,2013-08-11 16:06:00,
2013-08-11 12:11:00,91.1,77.7,30.12,NE,49,6.0,6.0,65,0.00,CLR,,0.00,WeatherDisplay:10.37,2013-08-11 16:11:00,
2013-08-11 12:17:00,91.5,78.5,30.12,SE,133,4.0,4.0,66,0.00,CLR,,0.00,WeatherDisplay:10.37,2013-08-11 16:17:00,
2013-08-11 12:23:00,91.9,79.4,30.12,SSE,163,10.4,10.4,67,0.00,CLR,,0.00,WeatherDisplay:10.37,2013-08-11 16:23:00,
2013-08-11 12:29:00,92.2,78.3,30.12,SSW,202,7.0,7.0,64,0.00,CLR,,0.00,WeatherDisplay:10.37,2013-08-11 16:29:00,
2013-08-11 12:34:00,91.7,77.8,30.12,SSE,156,11.5,11.5,64,0.00,CLR,,0.00,WeatherDisplay:10.37,2013-08-11 16:34:00,
2013-08-11 12:39:00,91.5,78.5,30.12,ESE,118,4.6,4.6,66,0.00,CLR,,0.00,WeatherDisplay:10.37,2013-08-11 16:39:00,
2013-08-11 12:44:00,91.8,77.9,30.12,South,188,5.0,5.0,64,0.00,CLR,,0.00,WeatherDisplay:10.37,2013-08-11 16:44:00,
2013-08-11 12:50:00,91.9,78.0,30.12,SSE,159,9.2,9.2,64,0.00,CLR,,0.00,WeatherDisplay:10.37,2013-08-11 16:50:00,
2013-08-11 12:56:00,92.5,79.5,30.11,SSE,159,1.0,0.0,66,0.00,CLR,,0.00,WeatherDisplay:10.37,2013-08-11 16:56:00,
2013-08-11 13:01:00,92.9,78.0,30.11,SSE,150,9.2,9.2,62,0.00,CLR,,0.00,WeatherDisplay:10.37,2013-08-11 17:01:00,
2013-08-11 13:06:00,92.2,78.3,30.12,SSE,153,11.5,11.5,64,0.00,CLR,,0.00,WeatherDisplay:10.37,2013-08-11 17:06:00,
2013-08-11 13:11:00,92.2,78.7,30.11,SE,143,10.4,10.4,65,0.00,CLR,,0.00,WeatherDisplay:10.37,2013-08-11 17:11:00,
2013-08-11 13:17:00,92.6,76.7,30.12,NNE,29,3.5,3.5,60,0.00,CLR,,0.00,WeatherDisplay:10.37,2013-08-11 17:17:00,
2013-08-11 13:22:00,91.8,76.9,30.11,SSE,161,4.6,4.6,62,0.00,CLR,,0.00,WeatherDisplay:10.37,2013-08-11 17:22:00,
2013-08-11 13:27:00,91.5,78.1,30.11,NNE,30,3.5,3.5,65,0.00,CLR,,0.00,WeatherDisplay:10.37,2013-08-11 17:27:00,
2013-08-11 13:32:00,91.9,77.5,30.11,ESE,105,2.3,2.3,63,0.00,CLR,,0.00,WeatherDisplay:10.37,2013-08-11 17:32:00,
2013-08-11 13:37:00,92.4,78.4,30.11,ENE,59,4.0,4.0,64,0.00,CLR,,0.00,WeatherDisplay:10.37,2013-08-11 17:37:00,
2013-08-11 13:42:00,92.1,76.7,30.11,SE,146,11.5,11.5,61,0.00,CLR,,0.00,WeatherDisplay:10.37,2013-08-11 17:42:00,
2013-08-11 13:48:00,92.1,77.7,30.11,SSE,161,9.2,9.2,63,0.00,CLR,,0.00,WeatherDisplay:10.37,2013-08-11 17:48:00,
2013-08-11 13:53:00,92.2,77.8,30.11,SSE,167,6.9,6.9,63,0.00,CLR,,0.00,WeatherDisplay:10.37,2013-08-11 17:53:00,
2013-08-11 13:58:00,92.7,76.8,30.11,SSE,153,10.4,10.4,60,0.00,CLR,,0.00,WeatherDisplay:10.37,2013-08-11 17:58:00,
2013-08-11 14:03:00,92.2,77.3,30.10,ESE,103,3.5,3.5,62,0.00,CLR,,0.00,WeatherDisplay:10.37,2013-08-11 18:03:00,
2013-08-11 14:09:00,92.9,78.0,30.10,ESE,102,3.5,3.5,62,0.00,CLR,,0.00,WeatherDisplay:10.37,2013-08-11 18:09:00,
2013-08-11 14:14:00,92.9,78.4,30.10,ESE,105,3.5,3.5,63,0.00,CLR,,0.00,WeatherDisplay:10.37,2013-08-11 18:14:00,
2013-08-11 14:20:00,93.4,77.4,30.10,ESE,112,4.0,4.0,60,0.00,CLR,,0.00,WeatherDisplay:10.37,2013-08-11 18:20:00,
2013-08-11 14:25:00,93.3,78.3,30.10,SE,138,9.2,9.2,62,0.00,CLR,,0.00,WeatherDisplay:10.37,2013-08-11 18:25:00,
2013-08-11 14:30:00,92.6,78.6,30.10,NE,42,3.5,3.5,64,0.00,CLR,,0.00,WeatherDisplay:10.37,2013-08-11 18:30:00,
2013-08-11 14:36:00,92.4,78.4,30.09,SE,142,10.4,10.4,64,0.00,CLR,,0.00,WeatherDisplay:10.37,2013-08-11 18:36:00,
2013-08-11 14:41:00,92.3,77.4,30.09,ENE,61,3.5,3.5,62,0.00,CLR,,0.00,WeatherDisplay:10.37,2013-08-11 18:41:00,
2013-08-11 14:46:00,92.0,78.1,30.09,SE,132,3.5,3.5,64,0.00,CLR,,0.00,WeatherDisplay:10.37,2013-08-11 18:46:00,
2013-08-11 14:52:00,93.0,78.1,30.09,SSE,160,4.0,4.0,62,0.00,CLR,,0.00,WeatherDisplay:10.37,2013-08-11 18:52:00,
2013-08-11 14:58:00,92.8,78.3,30.09,NNE,29,4.0,4.0,63,0.00,CLR,,0.00,WeatherDisplay:10.37,2013-08-11 18:58:00,
2013-08-11 15:03:00,92.4,77.5,30.09,SSE,158,11.5,11.5,62,0.00,CLR,,0.00,WeatherDisplay:10.37,2013-08-11 19:03:00,
2013-08-11 15:08:00,92.9,78.4,30.09,SSE,168,5.8,5.8,63,0.00,CLR,,0.00,WeatherDisplay:10.37,2013-08-11 19:08:00,
2013-08-11 15:13:00,93.6,78.1,30.09,NE,34,3.5,3.5,61,0.00,CLR,,0.00,WeatherDisplay:10.37,2013-08-11 19:13:00,
2013-08-11 15:19:00,93.6,78.1,30.09,East,92,3.5,3.5,61,0.00,CLR,,0.00,WeatherDisplay:10.37,2013-08-11 19:19:00,
2013-08-11 15:25:00,94.5,79.0,30.08,NE,51,4.6,4.6,61,0.00,CLR,,0.00,WeatherDisplay:10.37,2013-08-11 19:25:00,
2013-08-11 15:30:00,94.7,78.7,30.08,SSE,150,6.9,6.9,60,0.00,CLR,,0.00,WeatherDisplay:10.37,2013-08-11 19:30:00,
2013-08-11 15:35:00,93.5,78.5,30.08,ENE,70,7.0,7.0,62,0.00,CLR,,0.00,WeatherDisplay:10.37,2013-08-11 19:35:00,
2013-08-11 15:40:00,93.0,78.1,30.08,NE,46,5.8,5.8,62,0.00,CLR,,0.00,WeatherDisplay:10.37,2013-08-11 19:40:00,
2013-08-11 15:46:00,92.3,77.9,30.08,SSE,153,9.0,9.0,63,0.00,CLR,,0.00,WeatherDisplay:10.37,2013-08-11 19:46:00,
2013-08-11 15:51:00,92.0,78.1,30.08,SSE,148,4.6,4.6,64,0.00,CLR,,0.00,WeatherDisplay:10.37,2013-08-11 19:51:00,
2013-08-11 15:56:00,91.9,77.0,30.08,NE,56,5.0,5.0,62,0.00,CLR,,0.00,WeatherDisplay:10.37,2013-08-11 19:56:00,
2013-08-11 16:01:00,92.4,76.5,30.08,SE,133,6.9,6.9,60,0.00,CLR,,0.00,WeatherDisplay:10.37,2013-08-11 20:01:00,
2013-08-11 16:06:00,91.8,77.4,30.08,ESE,107,3.5,3.5,63,0.00,CLR,,0.00,WeatherDisplay:10.37,2013-08-11 20:06:00,
2013-08-11 16:11:00,91.7,77.8,30.08,East,94,3.5,3.5,64,0.00,CLR,,0.00,WeatherDisplay:10.37,2013-08-11 20:11:00,
2013-08-11 16:16:00,90.7,77.3,30.07,East,82,5.8,5.8,65,0.00,CLR,,0.00,WeatherDisplay:10.37,2013-08-11 20:16:00,
2013-08-11 16:24:00,90.4,77.5,30.07,ESE,109,3.5,3.5,66,0.00,CLR,,0.00,WeatherDisplay:10.37,2013-08-11 20:24:00,
2013-08-11 16:29:00,90.6,77.2,30.07,East,92,2.3,2.3,65,0.00,CLR,,0.00,WeatherDisplay:10.37,2013-08-11 20:29:00,
2013-08-11 16:34:00,91.6,76.7,30.07,East,97,4.0,4.0,62,0.00,CLR,,0.00,WeatherDisplay:10.37,2013-08-11 20:34:00,
2013-08-11 16:39:00,91.7,77.3,30.07,NE,46,6.9,6.9,63,0.00,CLR,,0.00,WeatherDisplay:10.37,2013-08-11 20:39:00,
2013-08-11 16:44:00,91.6,77.2,30.07,NE,44,6.9,6.9,63,0.00,CLR,,0.00,WeatherDisplay:10.37,2013-08-11 20:44:00,
2013-08-11 16:50:00,92.0,77.1,30.07,NE,46,4.0,4.0,62,0.00,CLR,,0.00,WeatherDisplay:10.37,2013-08-11 20:50:00,
2013-08-11 16:55:00,92.5,76.6,30.06,NE,49,6.9,6.9,60,0.00,CLR,,0.00,WeatherDisplay:10.37,2013-08-11 20:55:00,
2013-08-11 17:00:00,92.1,76.2,30.07,East,80,2.3,2.3,60,0.00,CLR,,0.00,WeatherDisplay:10.37,2013-08-11 21:00:00,
2013-08-11 17:06:00,91.4,77.0,30.06,ENE,69,11.5,11.5,63,0.00,CLR,,0.00,WeatherDisplay:10.37,2013-08-11 21:06:00,
2013-08-11 17:11:00,90.1,76.7,30.06,SSE,148,9.0,9.0,65,0.00,CLR,,0.00,WeatherDisplay:10.37,2013-08-11 21:11:00,
2013-08-11 17:17:00,90.0,76.6,30.06,ENE,58,5.0,5.0,65,0.00,CLR,,0.00,WeatherDisplay:10.37,2013-08-11 21:17:00,
2013-08-11 17:23:00,91.1,76.7,30.06,NE,38,2.3,2.3,63,0.00,CLR,,0.00,WeatherDisplay:10.37,2013-08-11 21:23:00,
2013-08-11 17:28:00,92.1,77.2,30.06,ENE,62,5.8,5.8,62,0.00,CLR,,0.00,WeatherDisplay:10.37,2013-08-11 21:28:00,
2013-08-11 17:33:00,92.7,77.3,30.06,NE,51,1.2,0.0,61,0.00,CLR,,0.00,WeatherDisplay:10.37,2013-08-11 21:33:00,
2013-08-11 17:38:00,92.1,76.2,30.06,ENE,63,2.3,2.3,60,0.00,CLR,,0.00,WeatherDisplay:10.37,2013-08-11 21:38:00,
2013-08-11 17:43:00,92.3,76.9,30.06,NNE,28,8.1,8.1,61,0.00,CLR,,0.00,WeatherDisplay:10.37,2013-08-11 21:43:00,
2013-08-11 17:48:00,91.0,76.7,30.06,East,83,2.3,2.3,63,0.00,CLR,,0.00,WeatherDisplay:10.37,2013-08-11 21:48:00,
2013-08-11 17:53:00,90.4,77.0,30.06,ENE,78,3.5,3.5,65,0.00,CLR,,0.00,WeatherDisplay:10.37,2013-08-11 21:53:00,
2013-08-11 17:58:00,90.9,76.6,30.06,NE,42,9.0,9.0,63,0.00,CLR,,0.00,WeatherDisplay:10.37,2013-08-11 21:58:00,
2013-08-11 18:03:00,91.5,77.1,30.06,NNE,18,3.5,0.0,63,0.00,CLR,,0.00,WeatherDisplay:10.37,2013-08-11 22:03:00,
2013-08-11 18:09:00,91.6,77.2,30.06,NE,48,5.8,5.8,63,0.00,CLR,,0.00,WeatherDisplay:10.37,2013-08-11 22:09:00,
2013-08-11 18:14:00,90.8,76.9,30.06,NE,45,9.0,9.0,64,0.00,CLR,,0.00,WeatherDisplay:10.37,2013-08-11 22:14:00,
2013-08-11 18:19:00,90.2,77.3,30.05,NE,54,3.5,3.5,66,0.00,CLR,,0.00,WeatherDisplay:10.37,2013-08-11 22:19:00,
2013-08-11 18:24:00,89.4,77.4,30.06,ENE,76,2.3,2.3,68,0.00,CLR,,0.00,WeatherDisplay:10.37,2013-08-11 22:24:00,
2013-08-11 18:29:00,89.2,77.3,30.06,NE,49,3.5,3.5,68,0.00,CLR,,0.00,WeatherDisplay:10.37,2013-08-11 22:29:00,
2013-08-11 18:34:00,89.0,76.6,30.06,NE,47,3.5,3.5,67,0.00,CLR,,0.00,WeatherDisplay:10.37,2013-08-11 22:34:00,
2013-08-11 18:40:00,88.7,77.2,30.06,NE,55,5.8,5.8,69,0.00,CLR,,0.00,WeatherDisplay:10.37,2013-08-11 22:40:00,
2013-08-11 18:45:00,88.5,77.0,30.05,East,84,2.3,2.3,69,0.00,CLR,,0.00,WeatherDisplay:10.37,2013-08-11 22:45:00,
2013-08-11 18:50:00,87.9,77.3,30.05,SE,141,9.2,9.2,71,0.00,CLR,,0.00,WeatherDisplay:10.37,2013-08-11 22:50:00,
2013-08-11 18:55:00,87.4,76.8,30.06,ENE,61,3.5,3.5,71,0.00,CLR,,0.00,WeatherDisplay:10.37,2013-08-11 22:55:00,
2013-08-11 19:01:00,87.1,77.0,30.06,NE,53,3.5,3.5,72,0.00,CLR,,0.00,WeatherDisplay:10.37,2013-08-11 23:01:00,
2013-08-11 19:06:00,87.0,76.9,30.06,NNE,29,4.6,4.6,72,0.00,CLR,,0.00,WeatherDisplay:10.37,2013-08-11 23:06:00,
2013-08-11 19:11:00,86.9,76.8,30.06,NE,38,1.2,1.2,72,0.00,CLR,,0.00,WeatherDisplay:10.37,2013-08-11 23:11:00,
2013-08-11 19:16:00,86.8,76.7,30.06,NE,36,2.3,2.3,72,0.00,CLR,,0.00,WeatherDisplay:10.37,2013-08-11 23:16:00,
2013-08-11 19:21:00,86.4,77.1,30.06,NNE,32,2.3,2.3,74,0.00,CLR,,0.00,WeatherDisplay:10.37,2013-08-11 23:21:00,
2013-08-11 19:26:00,86.2,76.9,30.06,NE,34,2.3,2.3,74,0.00,CLR,,0.00,WeatherDisplay:10.37,2013-08-11 23:26:00,
2013-08-11 19:31:00,85.7,76.5,30.06,NE,34,2.3,2.3,74,0.00,CLR,,0.00,WeatherDisplay:10.37,2013-08-11 23:31:00,
2013-08-11 19:36:00,85.4,76.6,30.06,NE,39,2.3,2.3,75,0.00,CLR,,0.00,WeatherDisplay:10.37,2013-08-11 23:36:00,
2013-08-11 19:42:00,85.3,76.5,30.06,NE,35,2.3,2.3,75,0.00,CLR,,0.00,WeatherDisplay:10.37,2013-08-11 23:42:00,
2013-08-11 19:47:00,85.0,76.6,30.06,NE,36,0.0,0.0,76,0.00,CLR,,0.00,WeatherDisplay:10.37,2013-08-11 23:47:00,
2013-08-11 19:52:00,84.9,76.9,30.06,NE,36,3.5,3.5,77,0.00,CLR,,0.00,WeatherDisplay:10.37,2013-08-11 23:52:00,
2013-08-11 19:57:00,84.7,76.3,30.06,NE,36,1.0,1.0,76,0.00,CLR,,0.00,WeatherDisplay:10.37,2013-08-11 23:57:00,
2013-08-11 20:03:00,84.5,76.5,30.06,NE,36,0.0,0.0,77,0.00,CLR,,0.00,WeatherDisplay:10.37,2013-08-12 00:03:00,
2013-08-11 20:08:00,84.3,76.7,30.06,NE,36,3.5,0.0,78,0.00,CLR,,0.00,WeatherDisplay:10.37,2013-08-12 00:08:00,
2013-08-11 20:13:00,84.2,76.6,30.06,NE,36,1.2,1.2,78,0.00,CLR,,0.00,WeatherDisplay:10.37,2013-08-12 00:13:00,
2013-08-11 20:18:00,84.1,76.5,30.06,NE,36,0.0,0.0,78,0.00,CLR,,0.00,WeatherDisplay:10.37,2013-08-12 00:18:00,
2013-08-11 20:25:00,84.0,76.8,30.07,NE,36,1.0,0.0,79,0.00,CLR,,0.00,WeatherDisplay:10.37,2013-08-12 00:25:00,
2013-08-11 20:30:00,84.0,76.8,30.07,NE,37,5.0,5.0,79,0.00,CLR,,0.00,WeatherDisplay:10.37,2013-08-12 00:30:00,
2013-08-11 20:35:00,84.0,76.8,30.07,NE,37,3.5,3.5,79,0.00,CLR,,0.00,WeatherDisplay:10.37,2013-08-12 00:35:00,
2013-08-11 20:40:00,84.0,77.2,30.07,NE,37,0.0,0.0,80,0.00,CLR,,0.00,WeatherDisplay:10.37,2013-08-12 00:40:00,
2013-08-11 20:45:00,83.9,77.1,30.07,NE,37,0.0,0.0,80,0.00,CLR,,0.00,WeatherDisplay:10.37,2013-08-12 00:45:00,
2013-08-11 20:50:00,83.8,77.3,30.07,NE,37,0.0,0.0,81,0.00,CLR,,0.00,WeatherDisplay:10.37,2013-08-12 00:50:00,
2013-08-11 20:55:00,83.7,77.2,30.07,NE,37,1.2,0.0,81,0.00,CLR,,0.00,WeatherDisplay:10.37,2013-08-12 00:55:00,
2013-08-11 21:01:00,83.6,77.1,30.07,NE,37,1.2,0.0,81,0.00,CLR,,0.00,WeatherDisplay:10.37,2013-08-12 01:01:00,
2013-08-11 21:06:00,83.6,77.1,30.07,NE,37,1.2,0.0,81,0.00,CLR,,0.00,WeatherDisplay:10.37,2013-08-12 01:06:00,
2013-08-11 21:11:00,83.6,77.1,30.08,NE,37,1.2,0.0,81,0.00,CLR,,0.00,WeatherDisplay:10.37,2013-08-12 01:11:00,
2013-08-11 21:14:00,83.5,77.1,30.08,NE,37,1.2,0.0,81,0.00,CLR,,0.00,WeatherDisplay:10.37,2013-08-12 01:14:00,
2013-08-11 21:16:00,83.5,77.1,30.08,NE,37,1.2,0.0,81,0.00,CLR,,0.00,WeatherDisplay:10.37,2013-08-12 01:16:00,
2013-08-11 21:22:00,83.5,77.1,30.08,NE,37,1.2,0.0,81,0.00,CLR,,0.00,WeatherDisplay:10.37,2013-08-12 01:22:00,
2013-08-11 21:28:00,83.5,76.7,30.08,NE,36,1.2,0.0,80,0.00,CLR,,0.00,WeatherDisplay:10.37,2013-08-12 01:28:00,
2013-08-11 21:33:00,83.4,76.6,30.08,NE,36,1.0,0.0,80,0.00,CLR,,0.00,WeatherDisplay:10.37,2013-08-12 01:33:00,
2013-08-11 21:38:00,83.4,76.6,30.08,NE,36,2.3,2.3,80,0.00,CLR,,0.00,WeatherDisplay:10.37,2013-08-12 01:38:00,
2013-08-11 21:43:00,83.3,76.5,30.08,NE,36,1.2,1.2,80,0.00,CLR,,0.00,WeatherDisplay:10.37,2013-08-12 01:43:00,
2013-08-11 21:48:00,83.1,76.3,30.08,NE,36,0.0,0.0,80,0.00,CLR,,0.00,WeatherDisplay:10.37,2013-08-12 01:48:00,
2013-08-11 21:53:00,83.1,76.3,30.08,NE,36,0.0,0.0,80,0.00,CLR,,0.00,WeatherDisplay:10.37,2013-08-12 01:53:00,
2013-08-11 21:58:00,83.0,76.2,30.09,NE,36,1.2,1.2,80,0.00,CLR,,0.00,WeatherDisplay:10.37,2013-08-12 01:58:00,
2013-08-11 22:03:00,82.9,76.1,30.09,NE,36,2.3,0.0,80,0.00,CLR,,0.00,WeatherDisplay:10.37,2013-08-12 02:03:00,
2013-08-11 22:09:00,82.7,76.3,30.09,NE,36,0.0,0.0,81,0.00,CLR,,0.00,WeatherDisplay:10.37,2013-08-12 02:09:00,
2013-08-11 22:14:00,82.8,76.4,30.09,NE,36,1.2,0.0,81,0.00,CLR,,0.00,WeatherDisplay:10.37,2013-08-12 02:14:00,
2013-08-11 22:19:00,82.8,76.4,30.09,NE,36,0.0,0.0,81,0.00,CLR,,0.00,WeatherDisplay:10.37,2013-08-12 02:19:00,
2013-08-11 22:24:00,82.8,76.4,30.10,NE,36,0.0,0.0,81,0.00,CLR,,0.00,WeatherDisplay:10.37,2013-08-12 02:24:00,
2013-08-11 22:30:00,82.7,76.3,30.10,NE,36,0.0,0.0,81,0.00,CLR,,0.00,WeatherDisplay:10.37,2013-08-12 02:30:00,
2013-08-11 22:36:00,82.6,76.5,30.10,NE,36,1.2,0.0,82,0.00,CLR,,0.00,WeatherDisplay:10.37,2013-08-12 02:36:00,
2013-08-11 22:41:00,82.5,76.8,30.10,NE,36,0.0,0.0,83,0.00,CLR,,0.00,WeatherDisplay:10.37,2013-08-12 02:41:00,
2013-08-11 22:46:00,82.5,76.8,30.10,NE,36,0.0,0.0,83,0.00,CLR,,0.00,WeatherDisplay:10.37,2013-08-12 02:46:00,
2013-08-11 22:51:00,82.5,76.8,30.10,NE,36,0.0,0.0,83,0.00,CLR,,0.00,WeatherDisplay:10.37,2013-08-12 02:51:00,
2013-08-11 22:56:00,82.4,76.3,30.10,NE,36,0.0,0.0,82,0.00,CLR,,0.00,WeatherDisplay:10.37,2013-08-12 02:56:00,
2013-08-11 23:01:00,82.3,76.3,30.10,NE,36,0.0,0.0,82,0.00,CLR,,0.00,WeatherDisplay:10.37,2013-08-12 03:01:00,
2013-08-11 23:06:00,82.3,76.3,30.10,NE,36,0.0,0.0,82,0.00,CLR,,0.00,WeatherDisplay:10.37,2013-08-12 03:06:00,
2013-08-11 23:11:00,82.2,76.2,30.10,NE,36,0.0,0.0,82,0.00,CLR,,0.00,WeatherDisplay:10.37,2013-08-12 03:11:00,
2013-08-11 23:16:00,82.1,76.1,30.10,NE,36,0.0,0.0,82,0.00,CLR,,0.00,WeatherDisplay:10.37,2013-08-12 03:16:00,
2013-08-11 23:21:00,82.0,76.0,30.10,NE,36,0.0,0.0,82,0.00,CLR,,0.00,WeatherDisplay:10.37,2013-08-12 03:21:00,
2013-08-11 23:26:00,81.8,76.1,30.10,NE,36,0.0,0.0,83,0.00,CLR,,0.00,WeatherDisplay:10.37,2013-08-12 03:26:00,
2013-08-11 23:31:00,81.6,75.9,30.10,NE,36,0.0,0.0,83,0.00,CLR,,0.00,WeatherDisplay:10.37,2013-08-12 03:31:00,
2013-08-11 23:36:00,81.3,76.0,30.10,NE,36,0.0,0.0,84,0.00,CLR,,0.00,WeatherDisplay:10.37,2013-08-12 03:36:00,
2013-08-11 23:42:00,81.0,75.7,30.10,NE,36,0.0,0.0,84,0.00,CLR,,0.00,WeatherDisplay:10.37,2013-08-12 03:42:00,
2013-08-11 23:48:00,80.7,75.8,30.10,NE,36,0.0,0.0,85,0.00,CLR,,0.00,WeatherDisplay:10.37,2013-08-12 03:48:00,
2013-08-11 23:53:00,80.5,75.9,30.10,NE,36,0.0,0.0,86,0.00,CLR,,0.00,WeatherDisplay:10.37,2013-08-12 03:53:00,
2013-08-11 23:59:00,80.2,75.6,30.10,NE,36,0.0,0.0,86,0.00,CLR,,0.00,WeatherDisplay:10.37,2013-08-12 03:59:00,